createdAt,value
2022-09-23T00:01:03.278Z,7.07
2022-09-23T00:03:30.785Z,6.83
2022-09-23T00:06:01.554Z,6.81
2022-09-23T00:08:28.920Z,7.03
2022-09-23T00:10:55.832Z,6.99
2022-09-23T00:13:24.572Z,6.94
2022-09-23T00:15:51.701Z,7.04
2022-09-23T00:18:18.250Z,7.04
2022-09-23T00:20:45.185Z,6.99
2022-09-23T00:23:11.845Z,7.03
2022-09-23T00:25:38.327Z,7.05
2022-09-23T00:28:04.778Z,6.94
2022-09-23T00:30:32.342Z,6.92
2022-09-23T00:32:58.848Z,6.88
2022-09-23T00:35:25.278Z,6.95
2022-09-23T00:37:51.874Z,6.90
2022-09-23T00:40:18.652Z,6.92
2022-09-23T00:42:46.961Z,6.89
2022-09-23T00:45:13.601Z,6.85
2022-09-23T00:47:48.048Z,6.93
2022-09-23T00:50:35.174Z,6.93
2022-09-23T00:53:03.760Z,6.82
2022-09-23T00:55:34.138Z,6.67
2022-09-23T00:58:03.389Z,6.76
2022-09-23T01:00:29.902Z,6.80
2022-09-23T01:02:56.346Z,6.73
2022-09-23T01:05:23.403Z,6.72
2022-09-23T01:07:50.820Z,6.65
2022-09-23T01:10:18.534Z,6.58
2022-09-23T01:12:50.151Z,6.54
2022-09-23T01:15:40.511Z,6.47
2022-09-23T01:18:11.379Z,6.44
2022-09-23T01:20:47.384Z,6.52
2022-09-23T01:23:23.246Z,6.46
2022-09-23T01:26:03.896Z,6.54
2022-09-23T01:28:37.615Z,6.32
2022-09-23T01:31:15.012Z,6.42
2022-09-23T01:34:03.459Z,6.33
2022-09-23T01:36:53.846Z,6.29
2022-09-23T01:39:33.714Z,6.19
2022-09-23T01:42:25.908Z,6.13
2022-09-23T01:45:25.782Z,6.24
2022-09-23T01:47:57.138Z,6.37
2022-09-23T01:50:52.043Z,6.35
2022-09-23T01:53:23.527Z,6.19
2022-09-23T01:55:53.164Z,6.19
2022-09-23T01:58:27.957Z,6.02
2022-09-23T02:00:59.535Z,6.16
2022-09-23T02:03:32.343Z,6.12
2022-09-23T02:06:22.384Z,6.15
2022-09-23T02:08:58.486Z,6.12
2022-09-23T02:11:25.712Z,6.22
2022-09-23T02:14:08.926Z,6.22
2022-09-23T02:16:55.108Z,6.20
2022-09-23T02:19:29.486Z,6.25
2022-09-23T02:22:03.667Z,6.23
2022-09-23T02:24:36.802Z,6.22
2022-09-23T02:27:26.265Z,6.19
2022-09-23T02:30:03.931Z,6.14
2022-09-23T02:32:48.855Z,6.13
2022-09-23T02:35:15.629Z,6.29
2022-09-23T02:37:48.263Z,6.12
2022-09-23T02:40:23.586Z,6.29
2022-09-23T02:43:21.193Z,6.22
2022-09-23T02:45:47.795Z,6.37
2022-09-23T02:48:18.809Z,6.32
2022-09-23T02:50:47.693Z,6.27
2022-09-23T02:53:16.159Z,6.33
2022-09-23T02:55:43.032Z,6.31
2022-09-23T02:58:10.242Z,6.30
2022-09-23T03:00:57.954Z,6.42
2022-09-23T03:03:47.235Z,6.30
2022-09-23T03:06:28.069Z,6.16
2022-09-23T03:09:12.543Z,6.17
2022-09-23T03:11:41.163Z,6.18
2022-09-23T03:14:20.554Z,6.15
2022-09-23T03:17:02.094Z,6.21
2022-09-23T03:19:28.474Z,6.25
2022-09-23T03:22:11.542Z,6.27
2022-09-23T03:24:39.426Z,6.34
2022-09-23T03:27:13.935Z,6.21
2022-09-23T03:29:45.570Z,6.29
2022-09-23T03:32:13.346Z,6.36
2022-09-23T03:34:41.531Z,6.32
2022-09-23T03:37:31.324Z,6.28
2022-09-23T03:40:09.501Z,6.20
2022-09-23T03:42:37.388Z,6.29
2022-09-23T03:45:08.311Z,6.31
2022-09-23T03:47:35.140Z,6.35
2022-09-23T03:50:01.839Z,6.36
2022-09-23T03:52:29.489Z,6.35
2022-09-23T03:54:56.059Z,6.36
2022-09-23T03:57:23.196Z,6.29
2022-09-23T03:59:50.644Z,6.47
2022-09-23T04:02:18.597Z,6.44
2022-09-23T04:04:46.578Z,6.43
2022-09-23T04:07:13.501Z,6.40
2022-09-23T04:09:40.450Z,6.25
2022-09-23T04:12:08.078Z,6.08
2022-09-23T04:14:34.805Z,6.22
2022-09-23T04:17:01.486Z,6.32
2022-09-23T04:19:28.073Z,6.32
2022-09-23T04:21:54.569Z,6.37
2022-09-23T04:24:21.851Z,6.39
2022-09-23T04:26:51.965Z,6.26
2022-09-23T04:29:19.735Z,6.48
2022-09-23T04:31:48.643Z,6.42
2022-09-23T04:34:18.249Z,6.50
2022-09-23T04:36:45.780Z,6.55
2022-09-23T04:39:18.591Z,6.61
2022-09-23T04:41:45.624Z,6.64
2022-09-23T04:44:13.864Z,6.52
2022-09-23T04:46:41.306Z,6.40
2022-09-23T04:49:08.416Z,6.47
2022-09-23T04:51:35.317Z,6.48
2022-09-23T04:54:01.927Z,6.62
2022-09-23T04:56:32.602Z,6.59
2022-09-23T04:59:01.094Z,6.73
2022-09-23T05:01:30.572Z,6.63
2022-09-23T05:04:02.467Z,6.74
2022-09-23T05:06:31.851Z,6.81
2022-09-23T05:08:59.122Z,6.93
2022-09-23T05:11:26.557Z,6.95
2022-09-23T05:13:54.497Z,7.06
2022-09-23T05:16:23.305Z,7.01
2022-09-23T05:18:50.651Z,7.03
2022-09-23T05:21:22.422Z,7.12
2022-09-23T05:23:52.428Z,7.79
2022-09-23T05:26:18.992Z,7.85
2022-09-23T05:28:45.609Z,7.84
2022-09-23T05:31:19.590Z,7.76
2022-09-23T05:34:02.450Z,7.80
2022-09-23T05:36:34.465Z,7.78
2022-09-23T05:39:04.641Z,7.81
2022-09-23T05:41:31.406Z,7.85
2022-09-23T05:43:59.728Z,7.84
2022-09-23T05:46:28.560Z,7.94
2022-09-23T05:49:01.160Z,7.99
2022-09-23T05:51:31.167Z,8.08
2022-09-23T05:53:59.847Z,8.06
2022-09-23T05:56:27.740Z,8.07
2022-09-23T05:58:57.866Z,8.22
2022-09-23T06:01:26.598Z,8.18
2022-09-23T06:03:54.719Z,8.31
2022-09-23T06:06:26.407Z,8.38
2022-09-23T06:08:52.956Z,8.46
2022-09-23T06:11:21.509Z,8.55
2022-09-23T06:13:48.710Z,8.60
2022-09-23T06:16:15.967Z,8.66
2022-09-23T06:18:44.296Z,8.75
2022-09-23T06:21:16.100Z,8.77
2022-09-23T06:23:43.467Z,8.85
2022-09-23T06:26:12.384Z,8.90
2022-09-23T06:28:40.483Z,9.01
2022-09-23T06:31:14.960Z,9.04
2022-09-23T06:33:42.938Z,9.11
2022-09-23T06:36:09.812Z,9.21
2022-09-23T06:38:39.976Z,9.20
2022-09-23T06:41:07.151Z,9.24
2022-09-23T06:43:33.942Z,9.29
2022-09-23T06:46:02.047Z,9.43
2022-09-23T06:48:29.398Z,9.49
2022-09-23T06:50:59.666Z,9.67
2022-09-23T06:53:26.222Z,9.85
2022-09-23T06:56:06.591Z,10.19
2022-09-23T06:58:34.281Z,10.45
2022-09-23T07:01:04.620Z,10.71
2022-09-23T07:03:31.944Z,11.18
2022-09-23T07:05:59.287Z,11.46
2022-09-23T07:08:27.312Z,11.56
2022-09-23T07:10:57.547Z,11.86
2022-09-23T07:13:24.642Z,12.08
2022-09-23T07:15:56.253Z,12.40
2022-09-23T07:18:25.714Z,12.32
2022-09-23T07:20:53.063Z,12.68
2022-09-23T07:23:19.747Z,13.11
2022-09-23T07:25:46.967Z,13.20
2022-09-23T07:28:13.668Z,13.20
2022-09-23T07:30:56.653Z,13.10
2022-09-23T07:33:32.162Z,13.41
2022-09-23T07:35:59.414Z,13.74
2022-09-23T07:38:30.383Z,13.94
2022-09-23T07:41:11.629Z,14.23
2022-09-23T07:43:39.940Z,14.24
2022-09-23T07:46:18.830Z,14.32
2022-09-23T07:48:46.000Z,14.22
2022-09-23T07:51:14.378Z,14.53
2022-09-23T07:53:40.879Z,14.86
2022-09-23T07:56:07.555Z,14.76
2022-09-23T07:58:35.018Z,14.78
2022-09-23T08:01:12.163Z,14.92
2022-09-23T08:03:39.326Z,14.86
2022-09-23T08:06:08.038Z,15.05
2022-09-23T08:08:35.657Z,15.16
2022-09-23T08:11:07.136Z,15.33
2022-09-23T08:13:34.144Z,15.60
2022-09-23T08:16:00.903Z,15.71
2022-09-23T08:18:27.819Z,15.46
2022-09-23T08:20:54.317Z,15.44
2022-09-23T08:23:21.177Z,15.95
2022-09-23T08:25:48.136Z,16.12
2022-09-23T08:28:18.522Z,16.32
2022-09-23T08:30:48.573Z,16.64
2022-09-23T08:33:17.475Z,16.71
2022-09-23T08:35:46.345Z,16.35
2022-09-23T08:38:12.967Z,16.45
2022-09-23T08:40:42.413Z,16.46
2022-09-23T08:43:17.660Z,16.34
2022-09-23T08:45:44.916Z,16.90
2022-09-23T08:48:17.158Z,17.25
2022-09-23T08:50:46.808Z,17.33
2022-09-23T08:53:38.035Z,17.62
2022-09-23T08:56:13.761Z,17.95
2022-09-23T08:59:29.270Z,17.77
2022-09-23T09:02:01.212Z,17.94
2022-09-23T09:04:40.624Z,18.05
2022-09-23T09:07:24.922Z,17.76
2022-09-23T09:10:12.079Z,17.48
2022-09-23T09:12:43.774Z,17.19
2022-09-23T09:15:25.458Z,17.80
2022-09-23T09:18:06.500Z,17.85
2022-09-23T09:20:57.341Z,17.89
2022-09-23T09:23:29.877Z,17.50
2022-09-23T09:25:59.531Z,17.24
2022-09-23T09:29:17.147Z,17.35
2022-09-23T09:31:51.619Z,17.16
2022-09-23T09:34:21.349Z,17.17
2022-09-23T09:37:07.879Z,17.12
2022-09-23T09:39:35.292Z,17.03
2022-09-23T09:42:02.546Z,17.33
2022-09-23T09:45:11.232Z,17.26
2022-09-23T09:48:06.660Z,16.92
2022-09-23T09:50:53.064Z,16.88
2022-09-23T09:53:22.315Z,16.64
2022-09-23T09:56:08.128Z,16.28
2022-09-23T09:58:43.779Z,16.24
2022-09-23T10:01:22.539Z,15.59
2022-09-23T10:03:53.193Z,15.59
2022-09-23T10:06:33.209Z,15.51
2022-09-23T10:09:21.656Z,15.64
2022-09-23T10:12:15.889Z,15.55
2022-09-23T10:14:43.028Z,15.57
2022-09-23T10:17:20.605Z,15.54
2022-09-23T10:20:08.237Z,15.45
2022-09-23T10:22:42.851Z,15.63
2022-09-23T10:25:26.767Z,15.56
2022-09-23T10:27:53.503Z,15.54
2022-09-23T10:30:23.027Z,15.45
2022-09-23T10:32:51.597Z,15.43
2022-09-23T10:35:24.516Z,15.43
2022-09-23T10:37:58.246Z,15.39
2022-09-23T10:40:58.826Z,15.37
2022-09-23T10:44:11.698Z,15.32
2022-09-23T10:46:52.227Z,15.48
2022-09-23T10:49:49.945Z,15.64
2022-09-23T10:52:39.567Z,15.60
2022-09-23T10:55:27.754Z,15.55
2022-09-23T10:57:54.186Z,15.54
2022-09-23T11:00:42.066Z,15.78
2022-09-23T11:03:20.648Z,15.77
2022-09-23T11:05:56.329Z,15.66
2022-09-23T11:08:29.759Z,15.79
2022-09-23T11:11:21.139Z,15.76
2022-09-23T11:14:25.224Z,15.79
2022-09-23T11:17:04.769Z,15.76
2022-09-23T11:19:49.396Z,15.86
2022-09-23T11:22:38.062Z,15.79
2022-09-23T11:25:08.182Z,15.72
2022-09-23T11:28:17.524Z,15.93
2022-09-23T11:31:04.287Z,16.16
2022-09-23T11:33:53.887Z,16.22
2022-09-23T11:36:35.710Z,16.34
2022-09-23T11:39:36.120Z,16.26
2022-09-23T11:42:10.684Z,16.49
2022-09-23T11:44:45.879Z,16.71
2022-09-23T11:47:49.970Z,17.17
2022-09-23T11:50:28.429Z,17.08
2022-09-23T11:53:04.792Z,16.85
2022-09-23T11:55:54.259Z,17.18
2022-09-23T11:58:31.860Z,17.43
2022-09-23T12:01:02.908Z,17.53
2022-09-23T12:04:01.165Z,17.35
2022-09-23T12:06:38.416Z,17.48
2022-09-23T12:09:14.495Z,17.15
2022-09-23T12:11:46.707Z,17.28
2022-09-23T12:14:23.900Z,17.25
2022-09-23T12:16:56.124Z,17.33
2022-09-23T12:19:47.641Z,17.35
2022-09-23T12:22:39.172Z,17.43
2022-09-23T12:25:35.649Z,16.94
2022-09-23T12:28:10.407Z,17.01
2022-09-23T12:30:37.589Z,17.09
2022-09-23T12:33:31.180Z,17.16
2022-09-23T12:36:06.324Z,17.25
2022-09-23T12:38:47.536Z,17.16
2022-09-23T12:41:24.046Z,17.10
2022-09-23T12:43:55.319Z,17.05
2022-09-23T12:46:27.470Z,17.38
2022-09-23T12:48:57.779Z,17.62
2022-09-23T12:51:34.822Z,18.17
2022-09-23T12:54:04.418Z,18.46
2022-09-23T12:56:40.031Z,18.54
2022-09-23T12:59:28.054Z,18.59
2022-09-23T13:01:55.434Z,18.81
2022-09-23T13:04:50.868Z,18.83
2022-09-23T13:07:25.980Z,19.06
2022-09-23T13:09:56.057Z,19.18
2022-09-23T13:12:31.113Z,19.43
2022-09-23T13:15:03.256Z,19.66
2022-09-23T13:17:36.127Z,20.07
2022-09-23T13:20:32.941Z,20.09
2022-09-23T13:23:04.205Z,20.03
2022-09-23T13:25:33.709Z,19.21
2022-09-23T13:28:03.881Z,19.68
2022-09-23T13:30:30.516Z,20.00
2022-09-23T13:33:05.344Z,19.65
2022-09-23T13:35:37.206Z,19.23
2022-09-23T13:38:32.172Z,18.70
2022-09-23T13:41:23.115Z,18.48
2022-09-23T13:43:52.493Z,18.28
2022-09-23T13:46:23.930Z,17.76
2022-09-23T13:48:55.847Z,17.90
2022-09-23T13:51:38.186Z,17.52
2022-09-23T13:54:05.194Z,17.01
2022-09-23T13:56:33.157Z,16.96
2022-09-23T13:59:28.304Z,17.07
2022-09-23T14:02:12.389Z,17.00
2022-09-23T14:04:40.349Z,16.65
2022-09-23T14:07:07.348Z,16.42
2022-09-23T14:09:35.588Z,16.20
2022-09-23T14:12:02.581Z,16.31
2022-09-23T14:14:30.503Z,16.18
2022-09-23T14:16:57.700Z,16.23
2022-09-23T14:19:28.263Z,16.04
2022-09-23T14:21:56.193Z,16.26
2022-09-23T14:24:22.639Z,16.20
2022-09-23T14:26:52.377Z,15.99
2022-09-23T14:29:33.116Z,15.60
2022-09-23T14:32:06.666Z,16.00
2022-09-23T14:34:51.697Z,16.04
2022-09-23T14:37:36.759Z,15.71
2022-09-23T14:40:13.931Z,15.79
2022-09-23T14:42:43.503Z,15.83
2022-09-23T14:45:19.569Z,15.94
2022-09-23T14:47:49.055Z,15.99
2022-09-23T14:50:37.205Z,15.57
2022-09-23T14:53:05.127Z,15.75
2022-09-23T14:55:31.777Z,15.86
2022-09-23T14:58:05.492Z,15.87
2022-09-23T15:00:31.974Z,15.83
2022-09-23T15:03:01.475Z,15.76
2022-09-23T15:05:47.837Z,16.01
2022-09-23T15:08:18.510Z,15.59
2022-09-23T15:10:46.175Z,15.57
2022-09-23T15:13:17.915Z,15.11
2022-09-23T15:15:44.610Z,14.89
2022-09-23T15:18:28.709Z,14.93
2022-09-23T15:21:02.536Z,15.08
2022-09-23T15:23:41.596Z,15.00
2022-09-23T15:26:15.456Z,15.05
2022-09-23T15:28:45.453Z,14.90
2022-09-23T15:31:12.876Z,14.88
2022-09-23T15:33:39.656Z,14.90
2022-09-23T15:36:06.304Z,14.77
2022-09-23T15:38:32.978Z,14.49
2022-09-23T15:40:59.477Z,14.65
2022-09-23T15:43:27.589Z,14.46
2022-09-23T15:45:59.116Z,14.71
2022-09-23T15:48:32.698Z,14.66
2022-09-23T15:51:04.348Z,14.42
2022-09-23T15:53:31.549Z,14.36
2022-09-23T15:55:59.213Z,14.57
2022-09-23T15:58:26.317Z,14.28
2022-09-23T16:00:56.831Z,14.38
2022-09-23T16:03:33.398Z,14.37
2022-09-23T16:06:03.085Z,14.34
2022-09-23T16:08:32.339Z,14.46
2022-09-23T16:10:59.617Z,14.34
2022-09-23T16:13:26.151Z,14.38
2022-09-23T16:15:52.718Z,14.44
2022-09-23T16:18:19.378Z,14.35
2022-09-23T16:20:46.451Z,14.11
2022-09-23T16:23:34.504Z,13.94
2022-09-23T16:26:17.128Z,13.93
2022-09-23T16:28:45.239Z,13.82
2022-09-23T16:31:14.643Z,13.78
2022-09-23T16:33:41.603Z,13.71
2022-09-23T16:36:23.270Z,13.53
2022-09-23T16:38:50.022Z,13.62
2022-09-23T16:41:16.575Z,13.80
2022-09-23T16:43:43.098Z,13.75
2022-09-23T16:46:12.303Z,13.75
2022-09-23T16:48:40.553Z,13.69
2022-09-23T16:51:08.940Z,13.51
2022-09-23T16:53:35.983Z,13.41
2022-09-23T16:56:09.780Z,13.31
2022-09-23T16:58:37.399Z,13.27
2022-09-23T17:01:23.944Z,13.19
2022-09-23T17:03:50.527Z,13.21
2022-09-23T17:06:19.552Z,13.08
2022-09-23T17:08:48.264Z,13.10
2022-09-23T17:11:16.485Z,13.14
2022-09-23T17:13:43.918Z,13.13
2022-09-23T17:16:12.824Z,13.02
2022-09-23T17:18:39.357Z,13.08
2022-09-23T17:21:07.184Z,13.09
2022-09-23T17:23:35.260Z,13.13
2022-09-23T17:26:02.916Z,13.12
2022-09-23T17:28:29.422Z,13.07
2022-09-23T17:31:00.220Z,13.05
2022-09-23T17:33:27.898Z,12.97
2022-09-23T17:35:56.762Z,13.02
2022-09-23T17:38:28.668Z,12.88
2022-09-23T17:41:01.397Z,12.91
2022-09-23T17:43:31.756Z,12.88
2022-09-23T17:46:06.659Z,12.85
2022-09-23T17:48:35.103Z,12.93
2022-09-23T17:51:06.744Z,12.65
2022-09-23T17:53:35.455Z,12.51
2022-09-23T17:56:04.701Z,12.26
2022-09-23T17:58:33.378Z,12.16
2022-09-23T18:01:00.472Z,12.04
2022-09-23T18:03:28.438Z,11.97
2022-09-23T18:05:55.343Z,11.86
2022-09-23T18:08:21.875Z,11.73
2022-09-23T18:10:48.360Z,11.61
2022-09-23T18:13:14.827Z,11.55
2022-09-23T18:15:41.507Z,11.53
2022-09-23T18:18:08.025Z,11.57
2022-09-23T18:20:34.578Z,11.55
2022-09-23T18:23:01.150Z,11.63
2022-09-23T18:25:39.287Z,11.58
2022-09-23T18:28:06.457Z,11.46
2022-09-23T18:30:33.509Z,11.37
2022-09-23T18:33:00.205Z,11.28
2022-09-23T18:35:26.846Z,11.20
2022-09-23T18:37:53.373Z,11.16
2022-09-23T18:40:19.938Z,11.11
2022-09-23T18:42:47.110Z,11.07
2022-09-23T18:45:13.627Z,11.02
2022-09-23T18:47:58.509Z,10.99
2022-09-23T18:50:40.360Z,11.24
2022-09-23T18:53:07.602Z,11.36
2022-09-23T18:55:35.574Z,11.48
2022-09-23T18:58:02.282Z,11.51
2022-09-23T19:00:29.113Z,11.52
2022-09-23T19:02:55.777Z,11.42
2022-09-23T19:05:22.327Z,11.40
2022-09-23T19:07:48.945Z,11.27
2022-09-23T19:10:15.475Z,11.32
2022-09-23T19:12:42.028Z,11.37
2022-09-23T19:15:09.083Z,11.34
2022-09-23T19:17:35.632Z,11.26
2022-09-23T19:20:02.212Z,11.25
2022-09-23T19:22:30.463Z,11.02
2022-09-23T19:24:56.949Z,10.98
2022-09-23T19:27:23.514Z,10.86
2022-09-23T19:29:50.342Z,10.85
2022-09-23T19:32:16.917Z,10.87
2022-09-23T19:34:44.249Z,10.82
2022-09-23T19:37:10.788Z,10.93
2022-09-23T19:39:37.566Z,11.15
2022-09-23T19:42:04.084Z,11.14
2022-09-23T19:44:30.729Z,10.89
2022-09-23T19:46:57.894Z,10.90
2022-09-23T19:49:25.357Z,11.23
2022-09-23T19:51:55.443Z,11.38
2022-09-23T19:54:22.705Z,11.22
2022-09-23T19:56:49.656Z,11.06
2022-09-23T19:59:19.494Z,10.83
2022-09-23T20:01:49.598Z,10.91
2022-09-23T20:04:16.753Z,10.70
2022-09-23T20:06:43.578Z,10.79
2022-09-23T20:09:10.304Z,10.98
2022-09-23T20:11:36.913Z,10.87
2022-09-23T20:14:06.403Z,10.91
2022-09-23T20:16:35.054Z,10.73
2022-09-23T20:19:04.852Z,10.57
2022-09-23T20:21:31.761Z,10.62
2022-09-23T20:23:58.524Z,10.73
2022-09-23T20:26:43.577Z,10.78
2022-09-23T20:29:11.027Z,10.76
2022-09-23T20:31:37.877Z,10.80
2022-09-23T20:34:07.113Z,10.81
2022-09-23T20:36:35.401Z,10.53
2022-09-23T20:39:05.982Z,10.45
2022-09-23T20:41:36.705Z,10.29
2022-09-23T20:44:05.901Z,10.27
2022-09-23T20:46:32.512Z,10.46
2022-09-23T20:48:59.057Z,10.40
2022-09-23T20:51:26.312Z,10.20
2022-09-23T20:53:53.043Z,10.12
2022-09-23T20:56:23.432Z,10.05
2022-09-23T20:58:52.187Z,10.00
2022-09-23T21:01:19.439Z,9.91
2022-09-23T21:03:48.589Z,9.86
2022-09-23T21:06:16.483Z,9.86
2022-09-23T21:08:44.477Z,9.75
2022-09-23T21:11:13.314Z,9.70
2022-09-23T21:13:39.866Z,9.80
2022-09-23T21:16:09.283Z,9.83
2022-09-23T21:18:37.234Z,9.84
2022-09-23T21:21:05.498Z,9.89
2022-09-23T21:23:38.113Z,10.04
2022-09-23T21:26:04.670Z,10.05
2022-09-23T21:28:35.593Z,9.88
2022-09-23T21:31:05.934Z,9.83
2022-09-23T21:33:33.048Z,9.94
2022-09-23T21:36:03.555Z,9.88
2022-09-23T21:38:37.016Z,9.80
2022-09-23T21:41:06.459Z,9.85
2022-09-23T21:43:34.944Z,9.72
2022-09-23T21:46:03.840Z,9.53
2022-09-23T21:48:31.606Z,9.62
2022-09-23T21:51:00.105Z,9.51
2022-09-23T21:53:29.463Z,9.74
2022-09-23T21:56:18.057Z,9.53
2022-09-23T21:58:47.008Z,9.49
2022-09-23T22:01:19.872Z,9.54
2022-09-23T22:03:54.716Z,9.69
2022-09-23T22:06:23.584Z,9.66
2022-09-23T22:08:52.260Z,9.59
2022-09-23T22:11:40.004Z,9.68
2022-09-23T22:14:09.343Z,9.82
2022-09-23T22:16:36.908Z,9.72
2022-09-23T22:19:06.958Z,9.68
2022-09-23T22:21:35.770Z,9.67
2022-09-23T22:24:03.003Z,9.60
2022-09-23T22:26:32.061Z,9.60
2022-09-23T22:29:17.143Z,9.45
2022-09-23T22:32:02.110Z,9.50
2022-09-23T22:34:48.512Z,9.49
2022-09-23T22:37:20.890Z,9.46
2022-09-23T22:39:47.460Z,9.42
2022-09-23T22:42:14.453Z,9.36
2022-09-23T22:44:41.167Z,9.35
2022-09-23T22:47:16.941Z,9.26
2022-09-23T22:49:43.826Z,9.24
2022-09-23T22:52:12.335Z,9.23
2022-09-23T22:54:40.408Z,9.21
2022-09-23T22:57:07.923Z,9.15
2022-09-23T22:59:34.820Z,9.12
2022-09-23T23:02:02.907Z,8.99
2022-09-23T23:04:30.333Z,9.04
2022-09-23T23:06:58.533Z,9.02
2022-09-23T23:09:25.007Z,9.01
2022-09-23T23:11:51.637Z,9.02
2022-09-23T23:14:18.906Z,8.95
2022-09-23T23:16:46.246Z,8.88
2022-09-23T23:19:16.573Z,8.87
2022-09-23T23:21:44.179Z,9.12
2022-09-23T23:24:15.435Z,9.05
2022-09-23T23:26:42.099Z,9.01
2022-09-23T23:29:10.845Z,9.03
2022-09-23T23:31:37.804Z,9.15
2022-09-23T23:34:04.960Z,9.06
2022-09-23T23:36:31.456Z,9.09
2022-09-23T23:38:57.965Z,9.19
2022-09-23T23:41:24.514Z,8.97
2022-09-23T23:43:56.555Z,8.78
2022-09-23T23:46:25.547Z,8.72
2022-09-23T23:48:52.677Z,8.58
2022-09-23T23:51:19.256Z,8.49
2022-09-23T23:53:45.776Z,8.47
2022-09-23T23:56:17.572Z,8.46
2022-09-23T23:58:44.308Z,8.41
